Terminal Aerodrome Forecast
Issued by NWS

Home | Current Version | Previous Version | Text Only | Print | Product List | Glossary On
Versions: 1 2 3 4 5 6 7 8 9 10 11 12 13 14 15 16 17
000
FTUS43 KAPX 242329
TAFPLN
TAF
KPLN 242329Z 2500/2524 26010KT P6SM OVC100
     FM250100 VRB03KT P6SM -RA OVC060
     FM250400 12005KT 4SM -RA OVC027
     FM250600 12005KT 1SM RA BR OVC008 WS020/19035KT
     FM251100 14006KT 3SM -RA OVC012 WS020/21035KT
     FM251400 20010G17KT 3SM -RA OVC012=

USA.gov is the U.S. government's official web portal to all federal, state and local government web resources and services.